Time;durP1;ratioP1;P1;durP2;ratioP2;P2;SDS_P1;SDS_P2;PMS_P1;PMS_P2;Temp;Humidity;BMP_temperature;BMP_pressure;BME280_temperature;BME280_humidity;BME280_pressure;Samples;Min_cycle;Max_cycle;Signal;HPM_P1;HPM_P2
2022/01/13 17:59:02;;;;;;;34.43;12.53;;;7.20;99.90;;;;;;6202587;22;20438;-51
2022/01/13 18:01:28;;;;;;;34.00;13.00;;;7.20;99.90;;;;;;6213995;23;20366;-52
2022/01/13 18:03:53;;;;;;;23.90;11.70;;;7.20;99.90;;;;;;6214737;23;20369;-51
2022/01/13 18:06:19;;;;;;;30.10;11.27;;;7.10;99.90;;;;;;6186827;23;20190;-51
2022/01/13 18:08:44;;;;;;;27.50;12.83;;;7.20;99.90;;;;;;6209109;23;20178;-51
2022/01/13 18:11:10;;;;;;;33.83;11.00;;;7.20;99.90;;;;;;6213552;23;20449;-51
2022/01/13 18:13:38;;;;;;;26.53;13.20;;;7.20;99.90;;;;;;6213488;23;20494;-51
2022/01/13 18:16:03;;;;;;;35.93;13.57;;;7.20;99.90;;;;;;6213364;23;20158;-51
2022/01/13 18:18:29;;;;;;;34.07;13.10;;;7.20;99.90;;;;;;6213664;23;20454;-51
2022/01/13 18:20:55;;;;;;;33.97;13.90;;;7.10;99.90;;;;;;6214004;23;20156;-53
2022/01/13 18:23:20;;;;;;;36.27;13.00;;;7.10;99.90;;;;;;6214402;23;20162;-52
2022/01/13 18:25:46;;;;;;;29.40;13.40;;;7.10;99.90;;;;;;6214134;23;20151;-51
2022/01/13 18:28:15;;;;;;;33.87;11.20;;;7.20;99.90;;;;;;6214305;23;20205;-51
2022/01/13 18:30:41;;;;;;;25.13;11.90;;;7.20;99.90;;;;;;6214151;23;20441;-51
2022/01/13 18:33:08;;;;;;;30.40;11.90;;;7.20;99.90;;;;;;6214106;23;20361;-50
2022/01/13 18:35:34;;;;;;;25.80;12.17;;;7.10;99.90;;;;;;6213793;23;20393;-51
2022/01/13 18:37:59;;;;;;;29.83;11.13;;;7.10;99.90;;;;;;6214194;23;20679;-52
2022/01/13 18:40:26;;;;;;;31.67;11.60;;;7.10;99.90;;;;;;6214333;23;20150;-51
2022/01/13 18:42:55;;;;;;;27.13;11.60;;;7.00;99.90;;;;;;6214325;23;20165;-51
2022/01/13 18:45:23;;;;;;;32.00;12.93;;;7.10;99.90;;;;;;6214037;23;20381;-51
2022/01/13 18:48:06;;;;;;;26.50;12.07;;;7.00;99.90;;;;;;6211291;23;20512;-52
2022/01/13 18:50:39;;;;;;;34.70;12.43;;;7.10;99.90;;;;;;6214009;23;20358;-50
2022/01/13 18:53:07;;;;;;;40.70;11.53;;;7.10;99.90;;;;;;6214117;23;20444;-52
2022/01/13 18:55:33;;;;;;;27.57;11.20;;;7.10;99.90;;;;;;6214021;23;20370;-51
2022/01/13 18:57:59;;;;;;;26.07;11.07;;;7.10;99.90;;;;;;6213773;23;20859;-51
2022/01/13 19:00:25;;;;;;;24.80;10.50;;;7.10;99.90;;;;;;6213949;23;20429;-51
2022/01/13 19:02:51;;;;;;;30.40;10.30;;;7.10;99.90;;;;;;6213358;23;20390;-51
2022/01/13 19:05:17;;;;;;;26.77;11.53;;;7.10;99.90;;;;;;6210375;23;20428;-51
2022/01/13 19:07:42;;;;;;;29.63;9.73;;;7.10;99.90;;;;;;6213411;23;20186;-51
2022/01/13 19:10:09;;;;;;;24.43;9.73;;;7.10;99.90;;;;;;6213529;23;20143;-52
2022/01/13 19:12:35;;;;;;;32.17;9.40;;;7.10;99.90;;;;;;6211950;23;20170;-51
2022/01/13 19:15:02;;;;;;;27.27;9.67;;;7.10;99.90;;;;;;6212351;23;20386;-52
2022/01/13 19:17:31;;;;;;;26.93;8.70;;;7.10;99.90;;;;;;6213996;23;20262;-51
2022/01/13 19:20:01;;;;;;;30.33;8.90;;;7.10;99.90;;;;;;6213747;23;20459;-51
2022/01/13 19:22:27;;;;;;;26.23;8.23;;;7.20;99.90;;;;;;6213438;23;20397;-51
2022/01/13 19:24:52;;;;;;;25.33;8.37;;;7.10;99.90;;;;;;6213441;23;20382;-51
2022/01/13 19:27:18;;;;;;;21.73;8.40;;;7.10;99.90;;;;;;6213412;23;20189;-51
2022/01/13 19:29:44;;;;;;;22.97;7.67;;;7.10;99.90;;;;;;6213436;23;20159;-50
2022/01/13 19:32:09;;;;;;;15.00;6.93;;;7.10;99.90;;;;;;6187187;23;20158;-51
2022/01/13 19:34:35;;;;;;;19.17;7.70;;;7.10;99.90;;;;;;6213516;23;20146;-50
2022/01/13 19:37:01;;;;;;;26.17;6.97;;;7.10;99.90;;;;;;6213213;23;20381;-51
2022/01/13 19:39:27;;;;;;;26.67;7.50;;;7.10;99.90;;;;;;6213590;23;20154;-51
2022/01/13 19:41:55;;;;;;;16.67;6.10;;;7.10;99.90;;;;;;6212782;23;20640;-51
2022/01/13 19:44:20;;;;;;;19.63;5.13;;;7.10;99.90;;;;;;6213274;23;20162;-51
2022/01/13 19:46:46;;;;;;;23.40;6.10;;;7.10;99.90;;;;;;6210256;23;20438;-50
2022/01/13 19:49:11;;;;;;;14.10;5.17;;;7.20;99.90;;;;;;6213584;23;20143;-51
2022/01/13 19:51:37;;;;;;;18.50;5.20;;;7.10;90.00;;;;;;6213667;23;20510;-51
2022/01/13 19:54:03;;;;;;;12.77;4.03;;;7.20;78.10;;;;;;6213213;23;20503;-51
2022/01/13 19:56:29;;;;;;;13.50;3.80;;;7.20;51.20;;;;;;6212949;23;20192;-50
2022/01/13 19:58:57;;;;;;;12.10;4.23;;;7.20;11.20;;;;;;6218370;23;20206;-54
2022/01/13 20:01:24;;;;;;;14.67;4.13;;;7.20;5.80;;;;;;6215464;23;20834;-48
2022/01/13 20:03:50;;;;;;;16.57;4.17;;;7.20;11.10;;;;;;6213366;23;21131;-48
2022/01/13 20:06:18;;;;;;;9.60;3.80;;;7.20;19.50;;;;;;6209596;23;20441;-49
2022/01/13 20:08:44;;;;;;;15.23;4.50;;;7.20;30.40;;;;;;6212656;23;20147;-48
2022/01/13 20:11:09;;;;;;;17.97;4.50;;;7.20;28.00;;;;;;6212891;23;20384;-48
2022/01/13 20:13:36;;;;;;;19.00;4.10;;;7.20;18.50;;;;;;6212918;23;20170;-48
2022/01/13 20:16:03;;;;;;;24.77;4.50;;;7.10;20.30;;;;;;6212654;23;20166;-48
2022/01/13 20:18:28;;;;;;;20.27;4.83;;;7.10;24.60;;;;;;6213245;23;20849;-48
2022/01/13 20:20:54;;;;;;;17.43;4.40;;;7.10;22.50;;;;;;6212981;23;20424;-48
2022/01/13 20:23:21;;;;;;;14.43;3.97;;;7.10;23.30;;;;;;6213006;23;20147;-48
2022/01/13 20:25:47;;;;;;;14.70;5.20;;;7.10;28.60;;;;;;6208945;23;20576;-48
2022/01/13 20:28:13;;;;;;;12.00;4.30;;;7.10;35.90;;;;;;6213057;23;20368;-48
2022/01/13 20:30:40;;;;;;;13.77;4.17;;;7.10;47.30;;;;;;6213138;23;20154;-48
2022/01/13 20:33:06;;;;;;;21.23;5.10;;;7.10;43.30;;;;;;6212850;23;20552;-48
2022/01/13 20:35:36;;;;;;;18.33;4.97;;;7.10;46.80;;;;;;6213201;23;20382;-48
2022/01/13 20:38:03;;;;;;;15.50;4.03;;;7.10;47.00;;;;;;6213365;23;20216;-48
2022/01/13 20:40:29;;;;;;;21.47;4.50;;;7.10;39.60;;;;;;6214489;23;20477;-49
2022/01/13 20:42:55;;;;;;;27.53;5.17;;;7.10;39.50;;;;;;6210341;23;20389;-48
2022/01/13 20:45:20;;;;;;;14.30;5.37;;;7.10;52.60;;;;;;6213391;23;20850;-48
2022/01/13 20:47:46;;;;;;;18.80;4.60;;;7.00;50.90;;;;;;6213220;23;20234;-48
2022/01/13 20:50:13;;;;;;;10.13;4.23;;;7.10;46.90;;;;;;6212876;23;20147;-48
2022/01/13 20:52:39;;;;;;;12.20;3.70;;;7.10;40.70;;;;;;6213079;23;20146;-48
2022/01/13 20:55:05;;;;;;;16.40;4.67;;;7.10;35.60;;;;;;6213160;23;20392;-48
2022/01/13 20:57:32;;;;;;;13.53;4.03;;;7.10;41.10;;;;;;6213109;23;20201;-49
2022/01/13 20:59:59;;;;;;;18.30;4.37;;;7.10;28.60;;;;;;6213324;23;20796;-51
2022/01/13 21:02:25;;;;;;;11.20;4.07;;;7.10;18.70;;;;;;6213811;23;20523;-50
2022/01/13 21:04:52;;;;;;;14.67;4.03;;;7.10;24.10;;;;;;6213299;23;20405;-51
2022/01/13 21:07:17;;;;;;;12.07;4.03;;;7.10;19.70;;;;;;6213115;23;20182;-50
2022/01/13 21:09:43;;;;;;;21.07;4.97;;;7.10;26.00;;;;;;6212842;23;20887;-50
2022/01/13 21:12:08;;;;;;;12.77;3.83;;;7.10;20.10;;;;;;6209101;23;20216;-51
2022/01/13 21:14:34;;;;;;;18.87;4.07;;;7.00;13.30;;;;;;6212525;23;20205;-50
2022/01/13 21:17:00;;;;;;;9.00;3.60;;;7.10;14.80;;;;;;6212904;23;20772;-50
2022/01/13 21:19:26;;;;;;;14.63;3.90;;;7.10;13.70;;;;;;6212566;23;20398;-50
2022/01/13 21:21:52;;;;;;;20.23;3.50;;;7.10;13.30;;;;;;6212638;23;20151;-51
2022/01/13 21:24:18;;;;;;;16.70;4.40;;;7.00;13.80;;;;;;6212445;23;20385;-51
2022/01/13 21:26:43;;;;;;;15.53;4.00;;;7.00;20.00;;;;;;6212608;23;20421;-51
2022/01/13 21:29:09;;;;;;;17.93;3.70;;;7.00;25.30;;;;;;6213065;23;20143;-51
2022/01/13 21:31:35;;;;;;;12.97;3.93;;;7.00;18.10;;;;;;6213113;23;20181;-51
2022/01/13 21:34:01;;;;;;;15.37;3.63;;;7.00;27.00;;;;;;6213176;23;20143;-50
2022/01/13 21:36:27;;;;;;;10.77;3.80;;;7.00;20.10;;;;;;6212907;23;20592;-51
2022/01/13 21:38:53;;;;;;;12.07;5.10;;;7.00;11.80;;;;;;6214428;23;20159;-51
2022/01/13 21:41:23;;;;;;;14.73;4.50;;;7.00;5.60;;;;;;6214803;23;20477;-51
2022/01/13 21:43:50;;;;;;;14.60;3.80;;;7.00;19.00;;;;;;6214686;23;20731;-51
2022/01/13 21:46:15;;;;;;;10.03;4.30;;;7.00;27.20;;;;;;6215148;23;20850;-51
2022/01/13 21:48:41;;;;;;;14.37;4.40;;;7.00;31.20;;;;;;6214584;23;20401;-51
2022/01/13 21:51:07;;;;;;;18.23;4.00;;;7.00;26.10;;;;;;6214811;23;20143;-51
2022/01/13 21:53:33;;;;;;;17.97;3.90;;;7.00;15.90;;;;;;6215071;23;20555;-48
2022/01/13 21:55:59;;;;;;;8.47;3.50;;;7.00;18.30;;;;;;6214415;23;20437;-48
2022/01/13 21:58:24;;;;;;;12.17;3.77;;;7.00;18.60;;;;;;6214446;23;20560;-48
2022/01/13 22:00:50;;;;;;;13.23;3.97;;;7.00;16.20;;;;;;6187905;23;20162;-48
2022/01/13 22:03:19;;;;;;;9.03;3.67;;;7.00;21.40;;;;;;6214550;23;20521;-48
2022/01/13 22:05:45;;;;;;;11.90;3.93;;;7.00;19.30;;;;;;6210304;23;20162;-48
2022/01/13 22:08:25;;;;;;;12.83;4.30;;;7.00;19.90;;;;;;6214115;23;20377;-49
2022/01/13 22:10:52;;;;;;;14.97;4.43;;;7.00;22.10;;;;;;6214280;23;20519;-48
2022/01/13 22:13:17;;;;;;;22.27;5.10;;;7.00;34.30;;;;;;6214463;23;20357;-48
2022/01/13 22:15:43;;;;;;;17.90;4.67;;;7.00;44.90;;;;;;6215645;23;20372;-48
2022/01/13 22:18:09;;;;;;;17.13;5.00;;;7.00;39.20;;;;;;6215355;23;20146;-48
2022/01/13 22:20:36;;;;;;;19.93;5.27;;;7.00;47.00;;;;;;6214263;23;20455;-48
2022/01/13 22:23:02;;;;;;;23.80;5.07;;;7.00;46.80;;;;;;6211472;23;20134;-49
2022/01/13 22:25:28;;;;;;;11.00;4.10;;;6.90;37.30;;;;;;6214052;23;20366;-48
2022/01/13 22:27:53;;;;;;;15.03;4.77;;;6.90;40.90;;;;;;6214148;23;20512;-48
2022/01/13 22:30:19;;;;;;;11.13;5.00;;;6.90;40.40;;;;;;6214330;23;20173;-49
2022/01/13 22:32:45;;;;;;;13.90;4.90;;;7.00;40.70;;;;;;6213877;23;20139;-48
2022/01/13 22:35:11;;;;;;;14.93;5.17;;;6.90;47.80;;;;;;6214044;23;20154;-48
2022/01/13 22:37:38;;;;;;;15.10;4.93;;;6.90;59.10;;;;;;6213826;23;20139;-49
2022/01/13 22:40:05;;;;;;;13.07;4.03;;;6.90;63.20;;;;;;6213887;23;20181;-48
2022/01/13 22:42:32;;;;;;;13.07;4.83;;;7.00;53.80;;;;;;6213891;23;20370;-48
2022/01/13 22:44:58;;;;;;;11.10;4.43;;;7.00;52.40;;;;;;6214431;23;20362;-48
2022/01/13 22:47:24;;;;;;;10.93;4.90;;;7.00;58.70;;;;;;6214225;23;20436;-48
2022/01/13 22:49:49;;;;;;;15.93;4.70;;;7.00;65.90;;;;;;6213709;23;20205;-49
2022/01/13 22:52:15;;;;;;;18.03;5.40;;;6.90;75.50;;;;;;6214002;23;20457;-48
2022/01/13 22:54:43;;;;;;;15.27;5.40;;;7.00;79.80;;;;;;6213939;23;20151;-49
2022/01/13 22:57:09;;;;;;;17.23;4.60;;;6.90;83.40;;;;;;6214222;23;20150;-49
2022/01/13 22:59:35;;;;;;;22.73;6.03;;;6.90;84.10;;;;;;6213751;23;20786;-48
2022/01/13 23:02:00;;;;;;;18.80;4.50;;;6.90;88.40;;;;;;6214217;23;20476;-48
2022/01/13 23:04:26;;;;;;;27.50;5.23;;;7.00;93.60;;;;;;6213607;23;20577;-48
2022/01/13 23:06:51;;;;;;;16.33;5.00;;;6.90;91.40;;;;;;6213668;23;20178;-48
2022/01/13 23:09:17;;;;;;;20.53;5.13;;;6.90;98.70;;;;;;6213820;23;20567;-48
2022/01/13 23:11:42;;;;;;;12.50;5.23;;;6.90;99.90;;;;;;6213504;23;20151;-48
2022/01/13 23:14:13;;;;;;;17.37;5.10;;;6.90;99.90;;;;;;6210047;23;20142;-49
2022/01/13 23:22:16;;;;;;;16.07;5.90;;;6.90;99.90;;;;;;6215570;23;20368;-48
2022/01/13 23:24:48;;;;;;;23.50;5.67;;;6.90;99.90;;;;;;6213470;23;20921;-49
2022/01/13 23:27:14;;;;;;;27.23;5.87;;;6.90;99.90;;;;;;6213463;23;20421;-48
2022/01/13 23:29:39;;;;;;;15.33;5.30;;;6.90;99.90;;;;;;6214612;23;20390;-48
2022/01/13 23:32:06;;;;;;;11.37;5.27;;;6.90;99.90;;;;;;6213490;23;20146;-48
2022/01/13 23:34:31;;;;;;;22.07;5.83;;;6.90;99.90;;;;;;6213200;23;20158;-48
2022/01/13 23:36:57;;;;;;;22.50;5.83;;;6.90;99.90;;;;;;6214376;23;20369;-51
2022/01/13 23:39:23;;;;;;;19.97;5.83;;;6.90;99.90;;;;;;6214699;23;20595;-51
2022/01/13 23:41:49;;;;;;;25.40;6.60;;;6.90;99.90;;;;;;6214651;23;20153;-51
2022/01/13 23:44:21;;;;;;;18.47;6.60;;;6.90;99.90;;;;;;6215233;23;20490;-51
2022/01/13 23:47:04;;;;;;;29.90;6.83;;;6.80;99.90;;;;;;6214949;23;20432;-50
2022/01/13 23:49:33;;;;;;;17.90;6.03;;;6.90;99.90;;;;;;6213348;23;20366;-50
2022/01/13 23:51:59;;;;;;;23.07;6.50;;;6.90;99.90;;;;;;6213896;23;20393;-51
2022/01/13 23:54:25;;;;;;;24.00;7.70;;;6.90;99.90;;;;;;6213999;23;20804;-51
2022/01/13 23:56:52;;;;;;;20.23;6.03;;;6.90;99.90;;;;;;6213848;23;20227;-51
2022/01/13 23:59:18;;;;;;;14.97;6.90;;;6.90;99.90;;;;;;6217341;23;20437;-51
